Time,TemperatureF,DewpointF,PressureIn,WindDirection,WindDirectionDegrees,WindSpeedMPH,WindSpeedGustMPH,Humidity,HourlyPrecipIn,Conditions,Clouds,dailyrainin,SoftwareType,DateUTC
2013-01-10 00:01:00,24.0,8.9,30.28,East,82,6.0,6.0,52,0.00,,,0.00,Wunderground v.1.15,2013-01-10 07:01:00,
2013-01-10 00:10:00,23.8,9.6,30.28,ESE,105,6.0,6.0,54,0.00,,,0.00,Wunderground v.1.15,2013-01-10 07:10:00,
2013-01-10 00:15:00,23.2,9.4,30.27,East,96,5.0,8.0,55,0.00,,,0.00,Wunderground v.1.15,2013-01-10 07:15:00,
2013-01-10 00:20:00,23.6,9.4,30.27,East,86,6.0,6.0,54,0.00,,,0.00,Wunderground v.1.15,2013-01-10 07:20:00,
2013-01-10 00:25:00,23.6,9.4,30.27,ENE,78,6.0,6.0,54,0.00,,,0.00,Wunderground v.1.15,2013-01-10 07:25:00,
2013-01-10 00:30:00,23.7,9.0,30.26,East,80,6.0,8.0,53,0.00,,,0.00,Wunderground v.1.15,2013-01-10 07:30:00,
2013-01-10 00:40:00,23.6,8.9,30.26,ENE,77,7.0,7.0,53,0.00,,,0.00,Wunderground v.1.15,2013-01-10 07:40:00,
2013-01-10 00:45:00,23.6,8.9,30.25,East,97,7.0,8.0,53,0.00,,,0.00,Wunderground v.1.15,2013-01-10 07:45:00,
2013-01-10 00:50:00,23.6,8.9,30.25,ENE,74,7.0,8.0,53,0.00,,,0.00,Wunderground v.1.15,2013-01-10 07:50:00,
2013-01-10 00:55:00,23.5,8.9,30.25,ENE,74,7.0,8.0,53,0.00,,,0.00,Wunderground v.1.15,2013-01-10 07:55:00,
2013-01-10 01:01:00,23.3,9.1,30.25,ENE,60,5.0,5.0,54,0.00,,,0.00,Wunderground v.1.15,2013-01-10 08:01:00,
2013-01-10 01:10:00,22.8,9.0,30.24,ENE,63,5.0,5.0,55,0.00,,,0.00,Wunderground v.1.15,2013-01-10 08:10:00,
2013-01-10 01:15:00,22.7,8.9,30.24,ESE,105,4.0,5.0,55,0.00,,,0.00,Wunderground v.1.15,2013-01-10 08:15:00,
2013-01-10 01:20:00,22.3,9.0,30.24,ENE,62,4.0,5.0,56,0.00,,,0.00,Wunderground v.1.15,2013-01-10 08:20:00,
2013-01-10 01:30:00,21.7,9.2,30.24,ESE,123,4.0,4.0,58,0.00,,,0.00,Wunderground v.1.15,2013-01-10 08:30:00,
2013-01-10 01:35:00,20.8,8.7,30.23,ESE,119,2.0,4.0,59,0.00,,,0.00,Wunderground v.1.15,2013-01-10 08:35:00,
2013-01-10 01:40:00,20.4,8.7,30.23,ESE,105,2.0,2.0,60,0.00,,,0.00,Wunderground v.1.15,2013-01-10 08:40:00,
2013-01-10 01:50:00,20.2,8.9,30.22,SE,130,1.0,1.0,61,0.00,,,0.00,Wunderground v.1.15,2013-01-10 08:50:00,
2013-01-10 01:55:00,19.8,8.9,30.22,SE,128,2.0,2.0,62,0.00,,,0.00,Wunderground v.1.15,2013-01-10 08:55:00,
2013-01-10 02:01:00,20.1,8.4,30.22,SE,146,2.0,2.0,60,0.00,,,0.00,Wunderground v.1.15,2013-01-10 09:01:00,
2013-01-10 02:10:00,19.7,8.4,30.21,SE,138,2.0,2.0,61,0.00,,,0.00,Wunderground v.1.15,2013-01-10 09:10:00,
2013-01-10 02:15:00,19.0,8.5,30.21,SE,142,2.0,2.0,63,0.00,,,0.00,Wunderground v.1.15,2013-01-10 09:15:00,
2013-01-10 02:25:00,20.1,8.1,30.21,ESE,118,3.0,4.0,59,0.00,,,0.00,Wunderground v.1.15,2013-01-10 09:25:00,
2013-01-10 02:30:00,20.0,7.2,30.21,ENE,70,3.0,5.0,57,0.00,,,0.00,Wunderground v.1.15,2013-01-10 09:30:00,
2013-01-10 02:35:00,21.0,8.1,30.20,East,93,4.0,8.0,57,0.00,,,0.00,Wunderground v.1.15,2013-01-10 09:35:00,
2013-01-10 02:40:00,20.8,7.6,30.20,East,88,6.0,8.0,56,0.00,,,0.00,Wunderground v.1.15,2013-01-10 09:40:00,
2013-01-10 02:45:00,20.7,6.7,30.20,ESE,103,5.0,8.0,54,0.00,,,0.00,Wunderground v.1.15,2013-01-10 09:45:00,
2013-01-10 02:50:00,20.3,7.1,30.20,East,85,5.0,5.0,56,0.00,,,0.00,Wunderground v.1.15,2013-01-10 09:50:00,
2013-01-10 03:01:00,20.6,6.2,30.19,East,86,7.0,8.0,53,0.00,,,0.00,Wunderground v.1.15,2013-01-10 10:01:00,
2013-01-10 03:10:00,21.6,5.8,30.19,East,92,10.0,10.0,50,0.00,,,0.00,Wunderground v.1.15,2013-01-10 10:10:00,
2013-01-10 03:15:00,21.6,5.8,30.19,East,82,9.0,10.0,50,0.00,,,0.00,Wunderground v.1.15,2013-01-10 10:15:00,
2013-01-10 03:20:00,21.1,6.2,30.19,ENE,77,8.0,8.0,52,0.00,,,0.00,Wunderground v.1.15,2013-01-10 10:20:00,
2013-01-10 03:25:00,20.8,5.9,30.19,East,89,6.0,8.0,52,0.00,,,0.00,Wunderground v.1.15,2013-01-10 10:25:00,
2013-01-10 03:35:00,20.3,5.9,30.18,East,98,6.0,7.0,53,0.00,,,0.00,Wunderground v.1.15,2013-01-10 10:35:00,
2013-01-10 03:40:00,19.9,5.5,30.18,East,100,5.0,5.0,53,0.00,,,0.00,Wunderground v.1.15,2013-01-10 10:40:00,
2013-01-10 03:50:00,19.7,5.7,30.17,ESE,107,5.0,5.0,54,0.00,,,0.00,Wunderground v.1.15,2013-01-10 10:50:00,
2013-01-10 03:55:00,18.9,5.8,30.17,SE,128,4.0,5.0,56,0.00,,,0.00,Wunderground v.1.15,2013-01-10 10:55:00,
2013-01-10 04:01:00,18.4,6.1,30.17,SSE,150,2.0,2.0,58,0.00,,,0.00,Wunderground v.1.15,2013-01-10 11:01:00,
2013-01-10 04:10:00,18.5,5.8,30.16,East,89,3.0,3.0,57,0.00,,,0.00,Wunderground v.1.15,2013-01-10 11:10:00,
2013-01-10 04:15:00,18.9,5.8,30.15,East,85,5.0,6.0,56,0.00,,,0.00,Wunderground v.1.15,2013-01-10 11:15:00,
2013-01-10 04:20:00,18.9,5.4,30.14,East,86,6.0,6.0,55,0.00,,,0.00,Wunderground v.1.15,2013-01-10 11:20:00,
2013-01-10 04:30:00,18.5,5.4,30.14,ESE,121,5.0,5.0,56,0.00,,,0.00,Wunderground v.1.15,2013-01-10 11:30:00,
2013-01-10 04:35:00,18.2,5.5,30.14,East,82,5.0,16.0,57,0.00,,,0.00,Wunderground v.1.15,2013-01-10 11:35:00,
2013-01-10 04:45:00,16.6,5.8,30.14,ESE,104,1.0,16.0,62,0.00,,,0.00,Wunderground v.1.15,2013-01-10 11:45:00,
2013-01-10 04:50:00,16.3,5.5,30.14,SSE,148,0.0,16.0,62,0.00,,,0.00,Wunderground v.1.15,2013-01-10 11:50:00,
2013-01-10 04:55:00,16.0,5.6,30.15,South,170,0.0,16.0,63,0.00,,,0.00,Wunderground v.1.15,2013-01-10 11:55:00,
2013-01-10 05:01:00,15.8,5.8,30.15,East,97,1.0,1.0,64,0.00,,,0.00,Wunderground v.1.15,2013-01-10 12:01:00,
2013-01-10 05:10:00,15.6,5.9,30.15,SSE,157,0.0,1.0,65,0.00,,,0.00,Wunderground v.1.15,2013-01-10 12:10:00,
2013-01-10 05:20:00,15.0,5.3,30.15,SSW,206,1.0,1.0,65,0.00,,,0.00,Wunderground v.1.15,2013-01-10 12:20:00,
2013-01-10 05:25:00,14.8,5.2,30.15,SSW,206,1.0,1.0,65,0.00,,,0.00,Wunderground v.1.15,2013-01-10 12:25:00,
2013-01-10 05:30:00,14.5,5.2,30.15,SSE,147,0.0,0.0,66,0.00,,,0.00,Wunderground v.1.15,2013-01-10 12:30:00,
2013-01-10 05:35:00,14.6,5.3,30.15,SSE,161,0.0,0.0,66,0.00,,,0.00,Wunderground v.1.15,2013-01-10 12:35:00,
2013-01-10 05:40:00,14.5,5.2,30.16,SSE,152,1.0,1.0,66,0.00,,,0.00,Wunderground v.1.15,2013-01-10 12:40:00,
2013-01-10 05:50:00,14.0,5.1,30.16,South,188,0.0,0.0,67,0.00,,,0.00,Wunderground v.1.15,2013-01-10 12:50:00,
2013-01-10 05:55:00,13.9,5.3,30.16,South,182,0.0,1.0,68,0.00,,,0.00,Wunderground v.1.15,2013-01-10 12:55:00,
2013-01-10 06:01:00,13.8,5.2,30.16,South,191,0.0,2.0,68,0.00,,,0.00,Wunderground v.1.15,2013-01-10 13:01:00,
2013-01-10 06:10:00,13.5,4.9,30.15,SSE,163,0.0,0.0,68,0.00,,,0.00,Wunderground v.1.15,2013-01-10 13:10:00,
2013-01-10 06:15:00,13.3,5.0,30.15,South,175,0.0,0.0,69,0.00,,,0.00,Wunderground v.1.15,2013-01-10 13:15:00,
2013-01-10 06:25:00,13.5,5.2,30.15,South,183,1.0,1.0,69,0.00,,,0.00,Wunderground v.1.15,2013-01-10 13:25:00,
2013-01-10 06:30:00,13.2,4.9,30.15,South,190,0.0,2.0,69,0.00,,,0.00,Wunderground v.1.15,2013-01-10 13:30:00,
2013-01-10 06:35:00,13.2,5.2,30.16,SSE,167,0.0,2.0,70,0.00,,,0.00,Wunderground v.1.15,2013-01-10 13:35:00,
2013-01-10 06:40:00,13.2,5.2,30.16,SSW,194,1.0,1.0,70,0.00,,,0.00,Wunderground v.1.15,2013-01-10 13:40:00,
2013-01-10 06:45:00,13.0,5.4,30.16,SSW,194,1.0,1.0,71,0.00,,,0.00,Wunderground v.1.15,2013-01-10 13:45:00,
2013-01-10 06:50:00,12.9,5.3,30.15,SSW,209,1.0,1.0,71,0.00,,,0.00,Wunderground v.1.15,2013-01-10 13:50:00,
2013-01-10 07:01:00,12.9,5.6,30.15,SW,215,1.0,1.0,72,0.00,,,0.00,Wunderground v.1.15,2013-01-10 14:01:00,
2013-01-10 07:10:00,13.1,5.8,30.15,East,101,1.0,2.0,72,0.00,,,0.00,Wunderground v.1.15,2013-01-10 14:10:00,
2013-01-10 07:15:00,13.3,6.0,30.15,SSE,163,1.0,2.0,72,0.00,,,0.00,Wunderground v.1.15,2013-01-10 14:15:00,
2013-01-10 07:20:00,13.3,6.0,30.14,South,188,1.0,1.0,72,0.00,,,0.00,Wunderground v.1.15,2013-01-10 14:20:00,
2013-01-10 07:25:00,13.4,6.1,30.14,SSE,150,1.0,1.0,72,0.00,,,0.00,Wunderground v.1.15,2013-01-10 14:25:00,
2013-01-10 07:35:00,13.9,6.5,30.14,SSW,212,1.0,1.0,72,0.00,,,0.00,Wunderground v.1.15,2013-01-10 14:35:00,
2013-01-10 07:45:00,14.5,7.1,30.13,ESE,123,1.0,5.0,72,0.00,,,0.00,Wunderground v.1.15,2013-01-10 14:45:00,
2013-01-10 07:50:00,15.0,7.3,30.13,ESE,103,1.0,2.0,71,0.00,,,0.00,Wunderground v.1.15,2013-01-10 14:50:00,
2013-01-10 07:55:00,15.1,7.1,30.13,South,182,1.0,2.0,70,0.00,,,0.00,Wunderground v.1.15,2013-01-10 14:55:00,
2013-01-10 08:01:00,15.4,7.4,30.13,SSW,194,1.0,1.0,70,0.00,,,0.00,Wunderground v.1.15,2013-01-10 15:01:00,
2013-01-10 08:10:00,16.2,7.5,30.13,South,182,2.0,3.0,68,0.00,,,0.00,Wunderground v.1.15,2013-01-10 15:10:00,
2013-01-10 08:15:00,16.5,7.8,30.13,SSE,161,2.0,3.0,68,0.00,,,0.00,Wunderground v.1.15,2013-01-10 15:15:00,
2013-01-10 08:20:00,16.7,8.0,30.13,South,185,2.0,2.0,68,0.00,,,0.00,Wunderground v.1.15,2013-01-10 15:20:00,
2013-01-10 08:25:00,16.8,8.1,30.13,WSW,240,2.0,3.0,68,0.00,,,0.00,Wunderground v.1.15,2013-01-10 15:25:00,
2013-01-10 08:30:00,16.9,7.8,30.14,SW,229,2.0,2.0,67,0.00,,,0.00,Wunderground v.1.15,2013-01-10 15:30:00,
2013-01-10 08:35:00,17.1,8.3,30.14,NNW,329,1.0,2.0,68,0.00,,,0.00,Wunderground v.1.15,2013-01-10 15:35:00,
2013-01-10 08:45:00,18.1,9.0,30.13,South,178,0.0,1.0,67,0.00,,,0.00,Wunderground v.1.15,2013-01-10 15:45:00,
2013-01-10 08:50:00,19.0,9.2,30.13,SSE,168,0.0,0.0,65,0.00,,,0.00,Wunderground v.1.15,2013-01-10 15:50:00,
2013-01-10 08:55:00,19.6,9.4,30.12,South,178,0.0,0.0,64,0.00,,,0.00,Wunderground v.1.15,2013-01-10 15:55:00,
2013-01-10 09:01:00,20.1,9.9,30.12,NNW,333,0.0,0.0,64,0.00,,,0.00,Wunderground v.1.15,2013-01-10 16:01:00,
2013-01-10 09:17:00,20.6,10.0,30.12,South,184,0.0,0.0,63,0.00,,,0.00,Wunderground v.1.15,2013-01-10 16:17:00,
2013-01-10 09:25:00,21.5,10.8,30.11,South,176,0.0,0.0,63,0.00,,,0.00,Wunderground v.1.15,2013-01-10 16:25:00,
2013-01-10 09:35:00,23.4,10.8,30.10,SSE,150,0.0,5.0,58,0.00,,,0.00,Wunderground v.1.15,2013-01-10 16:35:00,
2013-01-10 09:40:00,23.5,11.3,30.11,South,173,0.0,5.0,59,0.00,,,0.00,Wunderground v.1.15,2013-01-10 16:40:00,
2013-01-10 09:50:00,24.6,11.9,30.10,SE,145,0.0,5.0,58,0.00,,,0.00,Wunderground v.1.15,2013-01-10 16:50:00,
2013-01-10 09:55:00,25.6,12.5,30.10,SSE,153,0.0,5.0,57,0.00,,,0.00,Wunderground v.1.15,2013-01-10 16:55:00,
2013-01-10 10:01:00,26.4,12.8,30.10,SSW,192,0.0,0.0,56,0.00,,,0.00,Wunderground v.1.15,2013-01-10 17:01:00,
2013-01-10 10:10:00,27.5,13.0,30.10,South,184,0.0,1.0,54,0.00,,,0.00,Wunderground v.1.15,2013-01-10 17:10:00,
2013-01-10 10:15:00,27.7,12.8,30.09,ESE,107,0.0,1.0,53,0.00,,,0.00,Wunderground v.1.15,2013-01-10 17:15:00,
2013-01-10 10:20:00,27.9,14.2,30.09,SSE,153,1.0,1.0,56,0.00,,,0.00,Wunderground v.1.15,2013-01-10 17:20:00,
2013-01-10 10:25:00,28.4,13.9,30.09,SSW,197,0.0,1.0,54,0.00,,,0.00,Wunderground v.1.15,2013-01-10 17:25:00,
2013-01-10 10:30:00,28.8,14.6,30.08,South,190,0.0,0.0,55,0.00,,,0.00,Wunderground v.1.15,2013-01-10 17:30:00,
2013-01-10 10:35:00,29.0,14.8,30.08,South,180,0.0,0.0,55,0.00,,,0.00,Wunderground v.1.15,2013-01-10 17:35:00,
2013-01-10 10:45:00,31.2,13.8,30.07,WNW,282,0.0,0.0,48,0.00,,,0.00,Wunderground v.1.15,2013-01-10 17:45:00,
2013-01-10 10:55:00,33.0,13.9,30.08,WSW,247,0.0,1.0,45,0.00,,,0.00,Wunderground v.1.15,2013-01-10 17:55:00,
2013-01-10 11:01:00,34.6,13.3,30.08,NNW,335,1.0,1.0,41,0.00,,,0.00,Wunderground v.1.15,2013-01-10 18:01:00,
2013-01-10 11:10:00,38.6,4.9,30.07,WNW,296,4.0,4.0,24,0.00,,,0.00,Wunderground v.1.15,2013-01-10 18:10:00,
2013-01-10 11:20:00,38.9,5.1,30.08,NW,325,5.0,5.0,24,0.00,,,0.00,Wunderground v.1.15,2013-01-10 18:20:00,
2013-01-10 11:25:00,38.7,6.7,30.08,NW,304,5.0,5.0,26,0.00,,,0.00,Wunderground v.1.15,2013-01-10 18:25:00,
2013-01-10 11:30:00,38.7,6.7,30.07,NNW,329,4.0,7.0,26,0.00,,,0.00,Wunderground v.1.15,2013-01-10 18:30:00,
2013-01-10 11:35:00,38.6,5.7,30.07,NW,309,5.0,7.0,25,0.00,,,0.00,Wunderground v.1.15,2013-01-10 18:35:00,
2013-01-10 11:40:00,38.4,6.4,30.07,NNW,329,6.0,6.0,26,0.00,,,0.00,Wunderground v.1.15,2013-01-10 18:40:00,
2013-01-10 11:50:00,38.5,7.4,30.05,NW,305,4.0,4.0,27,0.00,,,0.00,Wunderground v.1.15,2013-01-10 18:50:00,
2013-01-10 12:01:00,38.0,6.9,30.06,NNW,333,5.0,6.0,27,0.00,,,0.00,Wunderground v.1.15,2013-01-10 19:01:00,
2013-01-10 12:10:00,37.9,7.6,30.05,WNW,300,5.0,5.0,28,0.00,,,0.00,Wunderground v.1.15,2013-01-10 19:10:00,
2013-01-10 12:15:00,38.3,8.8,30.06,NNW,348,5.0,9.0,29,0.00,,,0.00,Wunderground v.1.15,2013-01-10 19:15:00,
2013-01-10 12:25:00,38.6,7.4,30.05,NNW,341,5.0,8.0,27,0.00,,,0.00,Wunderground v.1.15,2013-01-10 19:25:00,
2013-01-10 12:30:00,38.7,6.7,30.05,NNW,343,5.0,5.0,26,0.00,,,0.00,Wunderground v.1.15,2013-01-10 19:30:00,
2013-01-10 12:35:00,38.7,7.5,30.05,NW,325,5.0,10.0,27,0.00,,,0.00,Wunderground v.1.15,2013-01-10 19:35:00,
2013-01-10 12:40:00,38.9,6.9,30.05,NW,311,5.0,10.0,26,0.00,,,0.00,Wunderground v.1.15,2013-01-10 19:40:00,
2013-01-10 12:45:00,38.8,6.8,30.04,NNW,341,5.0,10.0,26,0.00,,,0.00,Wunderground v.1.15,2013-01-10 19:45:00,
2013-01-10 12:50:00,38.9,6.9,30.04,NNW,335,4.0,4.0,26,0.00,,,0.00,Wunderground v.1.15,2013-01-10 19:50:00,
2013-01-10 13:01:00,39.6,6.6,30.03,NW,317,4.0,4.0,25,0.00,,,0.00,Wunderground v.1.15,2013-01-10 20:01:00,
2013-01-10 13:10:00,40.1,5.2,30.02,NNW,328,5.0,5.0,23,0.00,,,0.00,Wunderground v.1.15,2013-01-10 20:10:00,
2013-01-10 13:20:00,40.3,5.4,30.02,NNW,340,5.0,7.0,23,0.00,,,0.00,Wunderground v.1.15,2013-01-10 20:20:00,
2013-01-10 13:25:00,40.2,6.2,30.01,NNW,340,6.0,7.0,24,0.00,,,0.00,Wunderground v.1.15,2013-01-10 20:25:00,
2013-01-10 13:30:00,40.0,5.1,30.01,NW,320,6.0,6.0,23,0.00,,,0.00,Wunderground v.1.15,2013-01-10 20:30:00,
2013-01-10 13:35:00,40.2,4.3,30.00,NNW,330,6.0,6.0,22,0.00,,,0.00,Wunderground v.1.15,2013-01-10 20:35:00,
2013-01-10 13:45:00,40.3,5.4,29.99,NNW,336,4.0,7.0,23,0.00,,,0.00,Wunderground v.1.15,2013-01-10 20:45:00,
2013-01-10 13:50:00,40.5,7.4,29.99,NW,322,3.0,7.0,25,0.00,,,0.00,Wunderground v.1.15,2013-01-10 20:50:00,
2013-01-10 13:55:00,40.4,6.4,29.99,WNW,282,3.0,7.0,24,0.00,,,0.00,Wunderground v.1.15,2013-01-10 20:55:00,
2013-01-10 14:01:00,40.5,5.5,29.99,NW,324,4.0,4.0,23,0.00,,,0.00,Wunderground v.1.15,2013-01-10 21:01:00,
2013-01-10 14:10:00,40.8,5.8,29.98,NNW,336,5.0,5.0,23,0.00,,,0.00,Wunderground v.1.15,2013-01-10 21:10:00,
2013-01-10 14:15:00,40.9,6.8,29.98,NNW,330,5.0,5.0,24,0.00,,,0.00,Wunderground v.1.15,2013-01-10 21:15:00,
2013-01-10 14:20:00,40.8,5.8,29.98,NNW,331,5.0,7.0,23,0.00,,,0.00,Wunderground v.1.15,2013-01-10 21:20:00,
2013-01-10 14:35:00,40.7,5.7,29.97,NNW,331,5.0,5.0,23,0.00,,,0.00,Wunderground v.1.15,2013-01-10 21:35:00,
2013-01-10 14:40:00,40.7,5.7,29.96,NNW,344,5.0,6.0,23,0.00,,,0.00,Wunderground v.1.15,2013-01-10 21:40:00,
2013-01-10 14:50:00,40.6,8.3,29.96,WNW,282,5.0,5.0,26,0.00,,,0.00,Wunderground v.1.15,2013-01-10 21:50:00,
2013-01-10 15:01:00,40.0,5.1,29.96,North,355,4.0,6.0,23,0.00,,,0.00,Wunderground v.1.15,2013-01-10 22:01:00,
2013-01-10 15:10:00,39.6,7.5,29.96,NNW,333,4.0,5.0,26,0.00,,,0.00,Wunderground v.1.15,2013-01-10 22:10:00,
2013-01-10 15:20:00,39.3,7.2,29.95,NNW,327,3.0,3.0,26,0.00,,,0.00,Wunderground v.1.15,2013-01-10 22:20:00,
2013-01-10 15:25:00,38.6,8.2,29.95,NW,305,3.0,4.0,28,0.00,,,0.00,Wunderground v.1.15,2013-01-10 22:25:00,
2013-01-10 15:30:00,38.6,8.2,29.95,NW,319,3.0,3.0,28,0.00,,,0.00,Wunderground v.1.15,2013-01-10 22:30:00,
2013-01-10 15:35:00,38.4,7.3,29.95,WNW,298,3.0,4.0,27,0.00,,,0.00,Wunderground v.1.15,2013-01-10 22:35:00,
2013-01-10 15:45:00,37.4,9.5,29.95,NW,309,3.0,11.0,31,0.00,,,0.00,Wunderground v.1.15,2013-01-10 22:45:00,
2013-01-10 15:50:00,36.8,8.9,29.95,SSW,213,1.0,11.0,31,0.00,,,0.00,Wunderground v.1.15,2013-01-10 22:50:00,
2013-01-10 16:01:00,34.6,11.0,29.95,SSW,211,0.0,0.0,37,0.00,,,0.00,Wunderground v.1.15,2013-01-10 23:01:00,
2013-01-10 16:10:00,32.8,12.7,29.95,NW,306,0.0,0.0,43,0.00,,,0.00,Wunderground v.1.15,2013-01-10 23:10:00,
2013-01-10 16:15:00,32.2,12.7,29.96,NW,306,0.0,0.0,44,0.00,,,0.00,Wunderground v.1.15,2013-01-10 23:15:00,
2013-01-10 16:25:00,32.9,11.7,29.96,West,271,0.0,1.0,41,0.00,,,0.00,Wunderground v.1.15,2013-01-10 23:25:00,
2013-01-10 16:30:00,33.4,11.6,29.95,WSW,257,1.0,1.0,40,0.00,,,0.00,Wunderground v.1.15,2013-01-10 23:30:00,
2013-01-10 16:35:00,33.3,12.1,29.96,WNW,288,1.0,1.0,41,0.00,,,0.00,Wunderground v.1.15,2013-01-10 23:35:00,
2013-01-10 16:45:00,32.5,13.5,29.97,WNW,288,0.0,0.0,45,0.00,,,0.00,Wunderground v.1.15,2013-01-10 23:45:00,
2013-01-10 16:50:00,31.9,13.4,29.97,WSW,250,0.0,0.0,46,0.00,,,0.00,Wunderground v.1.15,2013-01-10 23:50:00,
2013-01-10 16:55:00,31.2,13.8,29.97,WSW,250,0.0,0.0,48,0.00,,,0.00,Wunderground v.1.15,2013-01-10 23:55:00,
2013-01-10 17:01:00,30.7,13.3,29.96,WSW,250,0.0,0.0,48,0.00,,,0.00,Wunderground v.1.15,2013-01-11 00:01:00,
2013-01-10 17:10:00,29.6,13.7,29.95,WSW,250,0.0,0.0,51,0.00,,,0.00,Wunderground v.1.15,2013-01-11 00:10:00,
2013-01-10 17:20:00,28.4,13.9,29.95,WSW,250,0.0,0.0,54,0.00,,,0.00,Wunderground v.1.15,2013-01-11 00:20:00,
2013-01-10 17:25:00,27.9,13.4,29.95,WSW,250,0.0,0.0,54,0.00,,,0.00,Wunderground v.1.15,2013-01-11 00:25:00,
2013-01-10 17:30:00,27.5,14.2,29.94,WSW,250,0.0,0.0,57,0.00,,,0.00,Wunderground v.1.15,2013-01-11 00:30:00,
2013-01-10 17:40:00,26.7,13.9,29.94,WSW,250,0.0,0.0,58,0.00,,,0.00,Wunderground v.1.15,2013-01-11 00:40:00,
2013-01-10 17:50:00,26.2,13.8,29.94,WSW,250,0.0,0.0,59,0.00,,,0.00,Wunderground v.1.15,2013-01-11 00:50:00,
2013-01-10 17:55:00,25.8,14.9,29.95,WSW,250,0.0,0.0,63,0.00,,,0.00,Wunderground v.1.15,2013-01-11 00:55:00,
2013-01-10 18:01:00,25.8,14.2,29.95,WSW,250,0.0,0.0,61,0.00,,,0.00,Wunderground v.1.15,2013-01-11 01:01:00,
2013-01-10 18:10:00,26.0,14.8,29.95,WSW,250,0.0,0.0,62,0.00,,,0.00,Wunderground v.1.15,2013-01-11 01:10:00,
2013-01-10 18:20:00,25.8,15.6,29.94,WSW,250,0.0,0.0,65,0.00,,,0.00,Wunderground v.1.15,2013-01-11 01:20:00,
2013-01-10 18:30:00,26.2,15.7,29.94,WSW,250,0.0,0.0,64,0.00,,,0.00,Wunderground v.1.15,2013-01-11 01:30:00,
2013-01-10 18:35:00,26.3,15.4,29.94,WSW,250,0.0,3.0,63,0.00,,,0.00,Wunderground v.1.15,2013-01-11 01:35:00,
2013-01-10 18:45:00,26.3,15.4,29.93,WSW,250,0.0,3.0,63,0.00,,,0.00,Wunderground v.1.15,2013-01-11 01:45:00,
2013-01-10 18:55:00,26.3,15.8,29.94,WSW,250,0.0,3.0,64,0.00,,,0.00,Wunderground v.1.15,2013-01-11 01:55:00,
2013-01-10 19:01:00,26.5,16.0,29.94,WSW,250,0.0,0.0,64,0.00,,,0.00,Wunderground v.1.15,2013-01-11 02:01:00,
2013-01-10 19:10:00,26.4,16.2,29.94,WSW,250,0.0,0.0,65,0.00,,,0.00,Wunderground v.1.15,2013-01-11 02:10:00,
2013-01-10 19:20:00,26.5,16.0,29.95,WSW,250,0.0,0.0,64,0.00,,,0.00,Wunderground v.1.15,2013-01-11 02:20:00,
2013-01-10 19:25:00,26.6,15.7,29.94,WSW,250,0.0,0.0,63,0.00,,,0.00,Wunderground v.1.15,2013-01-11 02:25:00,
2013-01-10 19:35:00,26.7,16.1,29.93,WSW,250,0.0,0.0,64,0.00,,,0.00,Wunderground v.1.15,2013-01-11 02:35:00,
2013-01-10 19:45:00,26.6,16.1,29.94,WSW,250,0.0,0.0,64,0.00,,,0.00,Wunderground v.1.15,2013-01-11 02:45:00,
2013-01-10 19:55:00,26.9,16.3,29.92,South,169,0.0,0.0,64,0.00,,,0.00,Wunderground v.1.15,2013-01-11 02:55:00,
2013-01-10 20:01:00,26.6,16.4,29.92,South,169,0.0,0.0,65,0.00,,,0.00,Wunderground v.1.15,2013-01-11 03:01:00,
2013-01-10 20:10:00,26.6,17.1,29.90,South,169,0.0,0.0,67,0.00,,,0.00,Wunderground v.1.15,2013-01-11 03:10:00,
2013-01-10 20:15:00,26.6,16.8,29.91,South,169,0.0,0.0,66,0.00,,,0.00,Wunderground v.1.15,2013-01-11 03:15:00,
2013-01-10 20:20:00,26.6,16.1,29.91,South,169,0.0,0.0,64,0.00,,,0.00,Wunderground v.1.15,2013-01-11 03:20:00,
2013-01-10 20:25:00,26.6,16.4,29.91,South,169,0.0,0.0,65,0.00,,,0.00,Wunderground v.1.15,2013-01-11 03:25:00,
2013-01-10 20:35:00,26.6,16.4,29.91,SSE,156,0.0,0.0,65,0.00,,,0.00,Wunderground v.1.15,2013-01-11 03:35:00,
2013-01-10 20:40:00,26.8,17.0,29.90,SW,214,0.0,1.0,66,0.00,,,0.00,Wunderground v.1.15,2013-01-11 03:40:00,
2013-01-10 20:45:00,26.8,16.6,29.90,ENE,76,1.0,3.0,65,0.00,,,0.00,Wunderground v.1.15,2013-01-11 03:45:00,
2013-01-10 20:50:00,26.8,17.0,29.90,ENE,76,1.0,1.0,66,0.00,,,0.00,Wunderground v.1.15,2013-01-11 03:50:00,
2013-01-10 20:55:00,26.7,17.2,29.90,ENE,76,0.0,1.0,67,0.00,,,0.00,Wunderground v.1.15,2013-01-11 03:55:00,
2013-01-10 21:01:00,26.7,17.2,29.89,ENE,76,0.0,0.0,67,0.00,,,0.00,Wunderground v.1.15,2013-01-11 04:01:00,
2013-01-10 21:10:00,27.0,17.5,29.89,South,181,0.0,0.0,67,0.00,,,0.00,Wunderground v.1.15,2013-01-11 04:10:00,
2013-01-10 21:15:00,27.0,17.1,29.89,South,181,0.0,0.0,66,0.00,,,0.00,Wunderground v.1.15,2013-01-11 04:15:00,
2013-01-10 21:25:00,27.0,17.5,29.88,South,181,0.0,1.0,67,0.00,,,0.00,Wunderground v.1.15,2013-01-11 04:25:00,
2013-01-10 21:30:00,27.2,17.3,29.88,South,181,0.0,0.0,66,0.00,,,0.00,Wunderground v.1.15,2013-01-11 04:30:00,
2013-01-10 21:40:00,27.2,17.7,29.88,East,101,1.0,1.0,67,0.00,,,0.00,Wunderground v.1.15,2013-01-11 04:40:00,
2013-01-10 21:50:00,27.5,17.6,29.87,East,90,1.0,1.0,66,0.00,,,0.00,Wunderground v.1.15,2013-01-11 04:50:00,
2013-01-10 21:55:00,27.5,18.0,29.88,East,90,1.0,1.0,67,0.00,,,0.00,Wunderground v.1.15,2013-01-11 04:55:00,
2013-01-10 22:01:00,27.8,17.6,29.87,SSE,159,1.0,1.0,65,0.00,,,0.00,Wunderground v.1.15,2013-01-11 05:01:00,
2013-01-10 22:05:00,27.7,17.8,29.87,SSE,159,0.0,1.0,66,0.00,,,0.00,Wunderground v.1.15,2013-01-11 05:05:00,
2013-01-10 22:10:00,27.8,17.9,29.88,ENE,64,0.0,7.0,66,0.00,,,0.00,Wunderground v.1.15,2013-01-11 05:10:00,
2013-01-10 22:15:00,28.5,16.4,29.88,SW,222,1.0,7.0,60,0.00,,,0.00,Wunderground v.1.15,2013-01-11 05:15:00,
2013-01-10 22:25:00,28.9,15.6,29.88,South,188,1.0,2.0,57,0.00,,,0.00,Wunderground v.1.15,2013-01-11 05:25:00,
2013-01-10 22:30:00,28.7,16.6,29.87,SW,235,1.0,1.0,60,0.00,,,0.00,Wunderground v.1.15,2013-01-11 05:30:00,
2013-01-10 22:35:00,28.9,16.0,29.88,East,79,1.0,3.0,58,0.00,,,0.00,Wunderground v.1.15,2013-01-11 05:35:00,
2013-01-10 22:40:00,30.1,15.4,29.88,South,185,1.0,1.0,54,0.00,,,0.00,Wunderground v.1.15,2013-01-11 05:40:00,
2013-01-10 22:50:00,30.5,15.8,29.88,East,92,2.0,2.0,54,0.00,,,0.00,Wunderground v.1.15,2013-01-11 05:50:00,
2013-01-10 22:55:00,30.6,15.5,29.87,NNW,346,1.0,2.0,53,0.00,,,0.00,Wunderground v.1.15,2013-01-11 05:55:00,
2013-01-10 23:01:00,33.1,15.0,29.86,North,355,2.0,2.0,47,0.00,,,0.00,Wunderground v.1.15,2013-01-11 06:01:00,
2013-01-10 23:17:00,34.8,14.5,29.85,NNW,344,3.0,4.0,43,0.00,,,0.00,Wunderground v.1.15,2013-01-11 06:17:00,
2013-01-10 23:25:00,35.1,14.3,29.83,North,355,3.0,4.0,42,0.00,,,0.00,Wunderground v.1.15,2013-01-11 06:25:00,
2013-01-10 23:30:00,34.8,14.0,29.83,NNW,342,3.0,9.0,42,0.00,,,0.00,Wunderground v.1.15,2013-01-11 06:30:00,
2013-01-10 23:40:00,35.0,14.7,29.82,NNE,32,4.0,4.0,43,0.00,,,0.00,Wunderground v.1.15,2013-01-11 06:40:00,
2013-01-10 23:53:00,34.8,14.5,29.81,NW,305,3.0,7.0,43,0.00,,,0.00,Wunderground v.1.15,2013-01-11 06:53:00,